sensor_id;sensor_type;location;lat;lon;timestamp;pressure;altitude;pressure_sealevel;temperature;humidity
72925;BME280;61070;50.794;7.054;2022-08-19T00:00:18;100679.50;;;20.13;66.97
72925;BME280;61070;50.794;7.054;2022-08-19T00:02:45;100676.09;;;20.10;67.63
72925;BME280;61070;50.794;7.054;2022-08-19T00:05:13;100680.34;;;20.14;67.65
72925;BME280;61070;50.794;7.054;2022-08-19T00:07:38;100669.50;;;20.15;67.25
72925;BME280;61070;50.794;7.054;2022-08-19T00:10:05;100674.88;;;20.15;67.25
72925;BME280;61070;50.794;7.054;2022-08-19T00:12:31;100668.19;;;20.06;67.28
72925;BME280;61070;50.794;7.054;2022-08-19T00:14:56;100668.19;;;20.06;67.47
72925;BME280;61070;50.794;7.054;2022-08-19T00:17:22;100676.47;;;20.02;67.78
72925;BME280;61070;50.794;7.054;2022-08-19T00:19:47;100687.91;;;20.07;67.38
72925;BME280;61070;50.794;7.054;2022-08-19T00:22:12;100680.47;;;19.95;67.90
72925;BME280;61070;50.794;7.054;2022-08-19T00:24:38;100682.19;;;19.96;67.85
72925;BME280;61070;50.794;7.054;2022-08-19T00:27:04;100690.59;;;20.07;67.44
72925;BME280;61070;50.794;7.054;2022-08-19T00:29:29;100681.53;;;19.91;67.86
72925;BME280;61070;50.794;7.054;2022-08-19T00:31:55;100673.88;;;19.83;68.19
72925;BME280;61070;50.794;7.054;2022-08-19T00:34:23;100671.56;;;19.75;68.31
72925;BME280;61070;50.794;7.054;2022-08-19T00:36:49;100676.25;;;19.72;68.40
72925;BME280;61070;50.794;7.054;2022-08-19T00:39:16;100677.31;;;19.68;68.34
72925;BME280;61070;50.794;7.054;2022-08-19T00:41:43;100680.16;;;19.65;68.80
72925;BME280;61070;50.794;7.054;2022-08-19T00:44:22;100683.56;;;19.68;68.88
72925;BME280;61070;50.794;7.054;2022-08-19T00:46:50;100679.53;;;19.60;69.05
72925;BME280;61070;50.794;7.054;2022-08-19T00:49:20;100683.16;;;19.59;69.00
72925;BME280;61070;50.794;7.054;2022-08-19T00:51:49;100685.16;;;19.54;69.07
72925;BME280;61070;50.794;7.054;2022-08-19T00:54:15;100682.28;;;19.58;68.84
72925;BME280;61070;50.794;7.054;2022-08-19T00:56:42;100686.03;;;19.54;69.37
72925;BME280;61070;50.794;7.054;2022-08-19T00:59:09;100687.06;;;19.52;69.20
72925;BME280;61070;50.794;7.054;2022-08-19T01:01:39;100688.16;;;19.47;69.45
72925;BME280;61070;50.794;7.054;2022-08-19T01:04:06;100688.22;;;19.46;69.54
72925;BME280;61070;50.794;7.054;2022-08-19T01:06:32;100691.00;;;19.44;69.37
72925;BME280;61070;50.794;7.054;2022-08-19T01:08:59;100686.50;;;19.45;69.54
72925;BME280;61070;50.794;7.054;2022-08-19T01:11:26;100689.25;;;19.43;69.24
72925;BME280;61070;50.794;7.054;2022-08-19T01:13:52;100685.69;;;19.43;69.63
72925;BME280;61070;50.794;7.054;2022-08-19T01:16:20;100687.50;;;19.42;69.74
72925;BME280;61070;50.794;7.054;2022-08-19T01:18:47;100683.09;;;19.41;69.75
72925;BME280;61070;50.794;7.054;2022-08-19T01:21:22;100681.50;;;19.37;69.57
72925;BME280;61070;50.794;7.054;2022-08-19T01:23:51;100679.75;;;19.36;69.26
72925;BME280;61070;50.794;7.054;2022-08-19T01:26:19;100681.63;;;19.34;69.93
72925;BME280;61070;50.794;7.054;2022-08-19T01:28:46;100672.00;;;19.30;70.02
72925;BME280;61070;50.794;7.054;2022-08-19T01:31:18;100671.31;;;19.25;70.23
72925;BME280;61070;50.794;7.054;2022-08-19T01:33:45;100671.19;;;19.28;70.21
72925;BME280;61070;50.794;7.054;2022-08-19T01:36:14;100673.88;;;19.28;70.27
72925;BME280;61070;50.794;7.054;2022-08-19T01:38:42;100664.97;;;19.28;70.33
72925;BME280;61070;50.794;7.054;2022-08-19T01:41:10;100664.09;;;19.27;70.30
72925;BME280;61070;50.794;7.054;2022-08-19T01:43:36;100655.22;;;19.25;69.92
72925;BME280;61070;50.794;7.054;2022-08-19T01:46:02;100667.78;;;19.25;69.93
72925;BME280;61070;50.794;7.054;2022-08-19T01:48:40;100663.44;;;19.22;69.80
72925;BME280;61070;50.794;7.054;2022-08-19T01:51:07;100655.69;;;19.16;70.64
72925;BME280;61070;50.794;7.054;2022-08-19T01:53:33;100660.03;;;19.18;70.89
72925;BME280;61070;50.794;7.054;2022-08-19T01:55:58;100669.22;;;19.13;70.99
72925;BME280;61070;50.794;7.054;2022-08-19T01:58:27;100675.56;;;19.12;70.89
72925;BME280;61070;50.794;7.054;2022-08-19T02:00:55;100671.91;;;19.13;70.87
72925;BME280;61070;50.794;7.054;2022-08-19T02:03:21;100681.00;;;19.10;70.61
72925;BME280;61070;50.794;7.054;2022-08-19T02:05:46;100691.44;;;18.98;71.18
72925;BME280;61070;50.794;7.054;2022-08-19T02:08:11;100689.72;;;18.97;70.91
72925;BME280;61070;50.794;7.054;2022-08-19T02:10:42;100686.81;;;18.82;71.74
72925;BME280;61070;50.794;7.054;2022-08-19T02:13:09;100679.63;;;18.83;71.75
72925;BME280;61070;50.794;7.054;2022-08-19T02:15:34;100681.28;;;18.85;71.53
72925;BME280;61070;50.794;7.054;2022-08-19T02:17:59;100671.69;;;18.80;71.43
72925;BME280;61070;50.794;7.054;2022-08-19T02:20:25;100678.75;;;18.82;71.79
72925;BME280;61070;50.794;7.054;2022-08-19T02:22:50;100668.28;;;18.76;72.32
72925;BME280;61070;50.794;7.054;2022-08-19T02:25:16;100669.38;;;18.72;72.38
72925;BME280;61070;50.794;7.054;2022-08-19T02:27:42;100676.41;;;18.75;72.35
72925;BME280;61070;50.794;7.054;2022-08-19T02:30:11;100672.22;;;18.69;72.90
72925;BME280;61070;50.794;7.054;2022-08-19T02:32:36;100671.38;;;18.67;73.18
72925;BME280;61070;50.794;7.054;2022-08-19T02:35:02;100668.59;;;18.70;73.07
72925;BME280;61070;50.794;7.054;2022-08-19T02:37:28;100669.53;;;18.69;72.99
72925;BME280;61070;50.794;7.054;2022-08-19T02:40:12;100678.28;;;18.73;73.07
72925;BME280;61070;50.794;7.054;2022-08-19T02:42:37;100678.22;;;18.74;73.14
72925;BME280;61070;50.794;7.054;2022-08-19T02:45:03;100680.84;;;18.76;73.47
72925;BME280;61070;50.794;7.054;2022-08-19T02:47:30;100681.56;;;18.79;73.21
72925;BME280;61070;50.794;7.054;2022-08-19T02:49:55;100681.56;;;18.79;73.25
72925;BME280;61070;50.794;7.054;2022-08-19T02:52:21;100678.16;;;18.76;73.19
72925;BME280;61070;50.794;7.054;2022-08-19T02:54:48;100688.47;;;18.85;72.73
72925;BME280;61070;50.794;7.054;2022-08-19T02:57:14;100685.09;;;18.80;73.14
72925;BME280;61070;50.794;7.054;2022-08-19T02:59:39;100689.41;;;18.84;72.75
72925;BME280;61070;50.794;7.054;2022-08-19T03:02:05;100679.69;;;18.81;72.66
72925;BME280;61070;50.794;7.054;2022-08-19T03:04:30;100683.16;;;18.83;72.29
72925;BME280;61070;50.794;7.054;2022-08-19T03:06:55;100686.66;;;18.85;72.83
72925;BME280;61070;50.794;7.054;2022-08-19T03:09:21;100688.69;;;18.80;72.74
72925;BME280;61070;50.794;7.054;2022-08-19T03:11:46;100689.50;;;18.82;72.41
72925;BME280;61070;50.794;7.054;2022-08-19T03:14:12;100694.09;;;18.79;72.61
72925;BME280;61070;50.794;7.054;2022-08-19T03:16:46;100696.88;;;18.77;72.71
72925;BME280;61070;50.794;7.054;2022-08-19T03:19:13;100701.22;;;18.80;72.93
72925;BME280;61070;50.794;7.054;2022-08-19T03:21:42;100693.16;;;18.80;72.71
72925;BME280;61070;50.794;7.054;2022-08-19T03:24:10;100696.78;;;18.79;73.05
72925;BME280;61070;50.794;7.054;2022-08-19T03:26:45;100690.91;;;18.71;73.14
72925;BME280;61070;50.794;7.054;2022-08-19T03:29:11;100690.84;;;18.72;73.12
72925;BME280;61070;50.794;7.054;2022-08-19T03:31:38;100701.78;;;18.68;73.24
72925;BME280;61070;50.794;7.054;2022-08-19T03:34:04;100693.00;;;18.64;73.50
72925;BME280;61070;50.794;7.054;2022-08-19T03:36:30;100700.16;;;18.63;73.44
72925;BME280;61070;50.794;7.054;2022-08-19T03:38:58;100698.56;;;18.59;74.03
72925;BME280;61070;50.794;7.054;2022-08-19T03:41:28;100704.00;;;18.58;74.01
72925;BME280;61070;50.794;7.054;2022-08-19T03:43:54;100703.16;;;18.56;74.24
72925;BME280;61070;50.794;7.054;2022-08-19T03:46:22;100714.97;;;18.52;74.37
72925;BME280;61070;50.794;7.054;2022-08-19T03:48:50;100708.91;;;18.48;74.47
72925;BME280;61070;50.794;7.054;2022-08-19T03:51:22;100715.13;;;18.49;74.53
72925;BME280;61070;50.794;7.054;2022-08-19T03:53:49;100714.19;;;18.50;74.64
72925;BME280;61070;50.794;7.054;2022-08-19T03:56:15;100710.22;;;18.38;74.84
72925;BME280;61070;50.794;7.054;2022-08-19T03:58:41;100709.16;;;18.42;75.13
72925;BME280;61070;50.794;7.054;2022-08-19T04:01:12;100713.09;;;18.33;75.34
72925;BME280;61070;50.794;7.054;2022-08-19T04:03:38;100702.25;;;18.37;75.04
72925;BME280;61070;50.794;7.054;2022-08-19T04:08:36;100705.06;;;18.33;75.12
72925;BME280;61070;50.794;7.054;2022-08-19T04:11:01;100714.91;;;18.33;75.34
72925;BME280;61070;50.794;7.054;2022-08-19T04:13:26;100716.94;;;18.28;75.66
72925;BME280;61070;50.794;7.054;2022-08-19T04:15:52;100716.19;;;18.45;74.73
72925;BME280;61070;50.794;7.054;2022-08-19T04:18:18;100720.28;;;18.33;75.56
72925;BME280;61070;50.794;7.054;2022-08-19T04:20:45;100725.53;;;18.36;75.29
72925;BME280;61070;50.794;7.054;2022-08-19T04:23:13;100733.56;;;18.36;75.38
72925;BME280;61070;50.794;7.054;2022-08-19T04:25:40;100733.50;;;18.38;75.21
72925;BME280;61070;50.794;7.054;2022-08-19T04:28:07;100725.53;;;18.36;75.50
72925;BME280;61070;50.794;7.054;2022-08-19T04:30:46;100726.50;;;18.33;75.42
72925;BME280;61070;50.794;7.054;2022-08-19T04:33:14;100724.19;;;18.46;75.11
72925;BME280;61070;50.794;7.054;2022-08-19T04:35:43;100720.97;;;18.38;75.38
72925;BME280;61070;50.794;7.054;2022-08-19T04:38:08;100725.56;;;18.34;75.67
72925;BME280;61070;50.794;7.054;2022-08-19T04:40:40;100721.28;;;18.30;75.79
72925;BME280;61070;50.794;7.054;2022-08-19T04:43:23;100721.28;;;18.30;76.18
72925;BME280;61070;50.794;7.054;2022-08-19T04:45:49;100721.03;;;18.37;75.86
72925;BME280;61070;50.794;7.054;2022-08-19T04:48:15;100733.22;;;18.44;75.58
72925;BME280;61070;50.794;7.054;2022-08-19T04:50:42;100720.75;;;18.43;75.78
72925;BME280;61070;50.794;7.054;2022-08-19T04:53:08;100730.34;;;18.48;75.80
72925;BME280;61070;50.794;7.054;2022-08-19T04:55:33;100735.84;;;18.45;75.73
72925;BME280;61070;50.794;7.054;2022-08-19T04:58:00;100733.97;;;18.47;76.00
72925;BME280;61070;50.794;7.054;2022-08-19T05:00:27;100744.34;;;18.55;75.90
72925;BME280;61070;50.794;7.054;2022-08-19T05:02:53;100748.19;;;18.49;76.18
72925;BME280;61070;50.794;7.054;2022-08-19T05:05:18;100749.06;;;18.50;76.27
72925;BME280;61070;50.794;7.054;2022-08-19T05:07:45;100751.03;;;18.67;75.15
72925;BME280;61070;50.794;7.054;2022-08-19T05:10:10;100760.13;;;18.62;75.61
72925;BME280;61070;50.794;7.054;2022-08-19T05:12:36;100762.44;;;18.72;75.08
72925;BME280;61070;50.794;7.054;2022-08-19T05:15:03;100762.69;;;18.66;75.52
72925;BME280;61070;50.794;7.054;2022-08-19T05:17:29;100761.44;;;18.74;75.20
72925;BME280;61070;50.794;7.054;2022-08-19T05:19:54;100766.25;;;18.66;75.59
72925;BME280;61070;50.794;7.054;2022-08-19T05:22:40;100767.31;;;18.62;75.48
72925;BME280;61070;50.794;7.054;2022-08-19T05:25:08;100766.38;;;18.63;75.52
72925;BME280;61070;50.794;7.054;2022-08-19T05:27:34;100765.56;;;18.61;75.84
72925;BME280;61070;50.794;7.054;2022-08-19T05:30:00;100764.84;;;18.78;75.47
72925;BME280;61070;50.794;7.054;2022-08-19T05:32:27;100767.00;;;18.70;76.05
72925;BME280;61070;50.794;7.054;2022-08-19T05:34:53;100771.38;;;18.72;76.03
72925;BME280;61070;50.794;7.054;2022-08-19T05:37:18;100775.84;;;18.72;76.17
72925;BME280;61070;50.794;7.054;2022-08-19T05:39:43;100775.06;;;18.70;76.40
72925;BME280;61070;50.794;7.054;2022-08-19T05:42:11;100777.28;;;18.80;76.09
72925;BME280;61070;50.794;7.054;2022-08-19T05:44:39;100771.50;;;18.69;76.96
72925;BME280;61070;50.794;7.054;2022-08-19T05:47:08;100779.47;;;18.71;77.02
72925;BME280;61070;50.794;7.054;2022-08-19T05:49:34;100769.47;;;18.74;76.73
72925;BME280;61070;50.794;7.054;2022-08-19T05:52:03;100778.41;;;18.75;76.72
72925;BME280;61070;50.794;7.054;2022-08-19T05:54:29;100775.66;;;18.76;76.76
72925;BME280;61070;50.794;7.054;2022-08-19T05:56:55;100771.94;;;18.79;76.75
72925;BME280;61070;50.794;7.054;2022-08-19T05:59:20;100766.66;;;18.77;77.01
72925;BME280;61070;50.794;7.054;2022-08-19T06:01:48;100767.41;;;18.81;76.82
72925;BME280;61070;50.794;7.054;2022-08-19T06:04:19;100764.84;;;18.78;77.04
72925;BME280;61070;50.794;7.054;2022-08-19T06:06:49;100771.69;;;18.85;76.69
72925;BME280;61070;50.794;7.054;2022-08-19T06:09:17;100764.72;;;19.00;76.34
72925;BME280;61070;50.794;7.054;2022-08-19T06:11:48;100770.47;;;18.92;76.74
72925;BME280;61070;50.794;7.054;2022-08-19T06:14:18;100768.06;;;18.86;76.80
72925;BME280;61070;50.794;7.054;2022-08-19T06:16:44;100776.72;;;18.93;76.71
72925;BME280;61070;50.794;7.054;2022-08-19T06:19:16;100780.84;;;19.00;76.47
72925;BME280;61070;50.794;7.054;2022-08-19T06:21:43;100777.91;;;19.06;76.05
72925;BME280;61070;50.794;7.054;2022-08-19T06:24:11;100770.19;;;18.98;76.49
72925;BME280;61070;50.794;7.054;2022-08-19T06:26:40;100768.09;;;19.05;76.29
72925;BME280;61070;50.794;7.054;2022-08-19T06:29:07;100776.72;;;19.11;76.34
72925;BME280;61070;50.794;7.054;2022-08-19T06:31:35;100773.94;;;19.14;76.40
72925;BME280;61070;50.794;7.054;2022-08-19T06:34:02;100782.28;;;19.27;75.81
72925;BME280;61070;50.794;7.054;2022-08-19T06:36:32;100775.97;;;19.28;76.00
72925;BME280;61070;50.794;7.054;2022-08-19T06:39:00;100780.84;;;19.39;75.62
72925;BME280;61070;50.794;7.054;2022-08-19T06:41:26;100781.81;;;19.36;75.81
72925;BME280;61070;50.794;7.054;2022-08-19T06:43:53;100788.91;;;19.39;75.88
72925;BME280;61070;50.794;7.054;2022-08-19T06:46:18;100781.03;;;19.53;75.30
72925;BME280;61070;50.794;7.054;2022-08-19T06:48:45;100782.22;;;19.66;74.86
72925;BME280;61070;50.794;7.054;2022-08-19T06:51:10;100783.75;;;19.72;74.62
72925;BME280;61070;50.794;7.054;2022-08-19T06:53:36;100784.72;;;19.71;74.56
72925;BME280;61070;50.794;7.054;2022-08-19T06:56:01;100781.72;;;19.77;74.24
72925;BME280;61070;50.794;7.054;2022-08-19T06:58:29;100788.09;;;19.93;73.95
72925;BME280;61070;50.794;7.054;2022-08-19T07:00:59;100784.66;;;19.90;74.16
72925;BME280;61070;50.794;7.054;2022-08-19T07:03:27;100790.91;;;19.90;74.12
72925;BME280;61070;50.794;7.054;2022-08-19T07:05:54;100791.31;;;20.19;73.14
72925;BME280;61070;50.794;7.054;2022-08-19T07:08:19;100796.22;;;20.28;72.99
72925;BME280;61070;50.794;7.054;2022-08-19T07:10:45;100797.81;;;20.49;72.25
72925;BME280;61070;50.794;7.054;2022-08-19T07:13:11;100801.16;;;20.54;72.20
72925;BME280;61070;50.794;7.054;2022-08-19T07:15:36;100797.19;;;20.79;71.29
72925;BME280;61070;50.794;7.054;2022-08-19T07:18:02;100795.75;;;20.72;70.99
72925;BME280;61070;50.794;7.054;2022-08-19T07:20:28;100806.44;;;20.90;70.97
72925;BME280;61070;50.794;7.054;2022-08-19T07:22:53;100797.97;;;20.98;70.19
72925;BME280;61070;50.794;7.054;2022-08-19T07:25:18;100801.81;;;21.10;69.79
72925;BME280;61070;50.794;7.054;2022-08-19T07:27:48;100813.78;;;21.04;69.83
72925;BME280;61070;50.794;7.054;2022-08-19T07:30:14;100809.75;;;21.30;68.86
72925;BME280;61070;50.794;7.054;2022-08-19T07:32:40;100814.09;;;21.15;69.08
72925;BME280;61070;50.794;7.054;2022-08-19T07:35:06;100815.47;;;21.40;68.57
72925;BME280;61070;50.794;7.054;2022-08-19T07:37:31;100812.13;;;21.52;67.83
72925;BME280;61070;50.794;7.054;2022-08-19T07:39:57;100816.78;;;21.48;67.68
72925;BME280;61070;50.794;7.054;2022-08-19T07:42:22;100822.00;;;21.51;67.60
72925;BME280;61070;50.794;7.054;2022-08-19T07:44:47;100817.09;;;21.75;66.53
72925;BME280;61070;50.794;7.054;2022-08-19T07:47:13;100815.06;;;21.95;65.75
72925;BME280;61070;50.794;7.054;2022-08-19T07:49:40;100816.06;;;22.10;65.76
72925;BME280;61070;50.794;7.054;2022-08-19T07:52:08;100817.44;;;22.17;65.28
72925;BME280;61070;50.794;7.054;2022-08-19T07:54:36;100825.09;;;22.24;65.07
72925;BME280;61070;50.794;7.054;2022-08-19T07:57:02;100818.78;;;22.40;64.78
72925;BME280;61070;50.794;7.054;2022-08-19T07:59:28;100816.22;;;22.52;64.34
72925;BME280;61070;50.794;7.054;2022-08-19T08:01:55;100823.53;;;22.66;63.50
72925;BME280;61070;50.794;7.054;2022-08-19T08:04:21;100831.38;;;22.85;63.01
72925;BME280;61070;50.794;7.054;2022-08-19T08:07:06;100830.59;;;22.53;63.65
72925;BME280;61070;50.794;7.054;2022-08-19T08:09:51;100830.56;;;22.69;63.47
72925;BME280;61070;50.794;7.054;2022-08-19T08:12:21;100834.72;;;22.74;63.13
72925;BME280;61070;50.794;7.054;2022-08-19T08:14:53;100827.25;;;22.63;63.37
72925;BME280;61070;50.794;7.054;2022-08-19T08:17:21;100843.22;;;22.82;63.18
72925;BME280;61070;50.794;7.054;2022-08-19T08:19:47;100841.28;;;23.00;62.70
72925;BME280;61070;50.794;7.054;2022-08-19T08:22:17;100842.72;;;23.20;62.17
72925;BME280;61070;50.794;7.054;2022-08-19T08:25:04;100839.88;;;23.37;61.68
72925;BME280;61070;50.794;7.054;2022-08-19T08:27:30;100844.78;;;23.16;61.70
72925;BME280;61070;50.794;7.054;2022-08-19T08:29:57;100844.97;;;23.28;61.45
72925;BME280;61070;50.794;7.054;2022-08-19T08:32:22;100845.88;;;22.98;62.50
72925;BME280;61070;50.794;7.054;2022-08-19T08:34:48;100847.66;;;23.13;61.72
72925;BME280;61070;50.794;7.054;2022-08-19T08:37:13;100836.25;;;23.08;61.99
72925;BME280;61070;50.794;7.054;2022-08-19T08:39:39;100844.31;;;23.38;61.20
72925;BME280;61070;50.794;7.054;2022-08-19T08:42:21;100840.22;;;23.31;61.21
72925;BME280;61070;50.794;7.054;2022-08-19T08:44:58;100845.06;;;23.40;60.90
72925;BME280;61070;50.794;7.054;2022-08-19T08:47:25;100848.38;;;23.45;60.75
72925;BME280;61070;50.794;7.054;2022-08-19T08:49:59;100843.72;;;23.47;61.13
72925;BME280;61070;50.794;7.054;2022-08-19T08:52:29;100846.13;;;23.38;61.53
72925;BME280;61070;50.794;7.054;2022-08-19T08:54:58;100844.97;;;23.13;61.71
72925;BME280;61070;50.794;7.054;2022-08-19T08:57:35;100849.03;;;23.35;61.00
72925;BME280;61070;50.794;7.054;2022-08-19T09:00:05;100853.59;;;23.34;61.14
72925;BME280;61070;50.794;7.054;2022-08-19T09:02:31;100843.53;;;23.36;60.98
72925;BME280;61070;50.794;7.054;2022-08-19T09:04:56;100839.47;;;23.29;61.18
72925;BME280;61070;50.794;7.054;2022-08-19T09:10:01;100841.59;;;23.67;59.91
72925;BME280;61070;50.794;7.054;2022-08-19T09:15:07;100841.78;;;23.78;59.72
72925;BME280;61070;50.794;7.054;2022-08-19T09:17:35;100839.56;;;23.56;59.50
72925;BME280;61070;50.794;7.054;2022-08-19T09:22:36;100845.66;;;23.74;59.65
72925;BME280;61070;50.794;7.054;2022-08-19T09:25:03;100839.63;;;23.97;58.63
72925;BME280;61070;50.794;7.054;2022-08-19T09:27:30;100833.53;;;23.94;58.51
72925;BME280;61070;50.794;7.054;2022-08-19T09:29:57;100842.91;;;23.88;58.86
72925;BME280;61070;50.794;7.054;2022-08-19T09:32:23;100839.63;;;23.97;58.24
72925;BME280;61070;50.794;7.054;2022-08-19T09:34:50;100837.50;;;24.02;58.52
72925;BME280;61070;50.794;7.054;2022-08-19T09:37:18;100835.75;;;24.01;58.45
72925;BME280;61070;50.794;7.054;2022-08-19T09:39:43;100827.72;;;24.00;58.17
72925;BME280;61070;50.794;7.054;2022-08-19T09:42:09;100830.13;;;24.04;57.97
72925;BME280;61070;50.794;7.054;2022-08-19T09:44:40;100837.72;;;24.26;57.59
72925;BME280;61070;50.794;7.054;2022-08-19T09:47:07;100826.44;;;24.47;57.03
72925;BME280;61070;50.794;7.054;2022-08-19T09:49:33;100824.91;;;24.55;56.83
72925;BME280;61070;50.794;7.054;2022-08-19T09:51:58;100823.53;;;24.08;57.46
72925;BME280;61070;50.794;7.054;2022-08-19T09:54:25;100831.44;;;24.53;56.67
72925;BME280;61070;50.794;7.054;2022-08-19T09:56:50;100825.66;;;24.45;56.44
72925;BME280;61070;50.794;7.054;2022-08-19T09:59:16;100828.72;;;24.26;56.85
72925;BME280;61070;50.794;7.054;2022-08-19T10:01:41;100834.63;;;24.45;56.62
72925;BME280;61070;50.794;7.054;2022-08-19T10:04:07;100835.75;;;24.28;56.32
72925;BME280;61070;50.794;7.054;2022-08-19T10:06:37;100820.91;;;24.48;56.21
72925;BME280;61070;50.794;7.054;2022-08-19T10:09:04;100816.75;;;24.70;54.45
72925;BME280;61070;50.794;7.054;2022-08-19T10:11:32;100823.69;;;24.86;53.95
72925;BME280;61070;50.794;7.054;2022-08-19T10:13:58;100819.63;;;25.19;52.57
72925;BME280;61070;50.794;7.054;2022-08-19T10:16:24;100825.38;;;25.27;52.03
72925;BME280;61070;50.794;7.054;2022-08-19T10:18:51;100820.03;;;25.25;51.46
72925;BME280;61070;50.794;7.054;2022-08-19T10:21:22;100824.78;;;25.60;50.93
72925;BME280;61070;50.794;7.054;2022-08-19T10:23:50;100819.38;;;25.35;51.21
72925;BME280;61070;50.794;7.054;2022-08-19T10:26:23;100809.66;;;25.81;50.32
72925;BME280;61070;50.794;7.054;2022-08-19T10:28:49;100810.44;;;25.58;50.53
72925;BME280;61070;50.794;7.054;2022-08-19T10:31:18;100814.22;;;25.81;49.89
72925;BME280;61070;50.794;7.054;2022-08-19T10:33:45;100807.94;;;26.04;48.79
72925;BME280;61070;50.794;7.054;2022-08-19T10:36:13;100810.28;;;25.98;48.77
72925;BME280;61070;50.794;7.054;2022-08-19T10:38:41;100804.09;;;25.96;49.08
72925;BME280;61070;50.794;7.054;2022-08-19T10:41:11;100791.03;;;26.01;48.98
72925;BME280;61070;50.794;7.054;2022-08-19T10:43:36;100793.16;;;26.56;48.34
72925;BME280;61070;50.794;7.054;2022-08-19T10:46:04;100799.28;;;25.99;48.27
72925;BME280;61070;50.794;7.054;2022-08-19T10:48:31;100803.63;;;26.02;48.64
72925;BME280;61070;50.794;7.054;2022-08-19T10:50:57;100801.25;;;26.21;48.03
72925;BME280;61070;50.794;7.054;2022-08-19T10:53:41;100804.66;;;26.12;48.02
72925;BME280;61070;50.794;7.054;2022-08-19T10:56:06;100790.78;;;26.40;47.27
72925;BME280;61070;50.794;7.054;2022-08-19T10:58:50;100792.13;;;26.92;45.39
72925;BME280;61070;50.794;7.054;2022-08-19T11:01:15;100793.13;;;26.45;46.19
72925;BME280;61070;50.794;7.054;2022-08-19T11:03:41;100791.06;;;26.60;46.25
72925;BME280;61070;50.794;7.054;2022-08-19T11:06:08;100789.59;;;26.56;46.84
72925;BME280;61070;50.794;7.054;2022-08-19T11:08:34;100787.75;;;27.03;46.05
72925;BME280;61070;50.794;7.054;2022-08-19T11:11:04;100788.34;;;27.06;45.86
72925;BME280;61070;50.794;7.054;2022-08-19T11:13:32;100781.69;;;26.53;46.84
72925;BME280;61070;50.794;7.054;2022-08-19T11:16:07;100779.69;;;26.55;46.71
72925;BME280;61070;50.794;7.054;2022-08-19T11:18:35;100782.38;;;26.44;46.86
72925;BME280;61070;50.794;7.054;2022-08-19T11:23:39;100776.53;;;26.83;45.16
72925;BME280;61070;50.794;7.054;2022-08-19T11:26:05;100775.72;;;26.48;45.29
72925;BME280;61070;50.794;7.054;2022-08-19T11:28:30;100774.88;;;26.58;45.65
72925;BME280;61070;50.794;7.054;2022-08-19T11:30:56;100775.88;;;26.57;46.04
72925;BME280;61070;50.794;7.054;2022-08-19T11:33:21;100767.94;;;27.01;45.43
72925;BME280;61070;50.794;7.054;2022-08-19T11:35:47;100768.47;;;27.17;44.67
72925;BME280;61070;50.794;7.054;2022-08-19T11:38:12;100763.41;;;27.68;43.66
72925;BME280;61070;50.794;7.054;2022-08-19T11:40:39;100775.88;;;27.48;43.93
72925;BME280;61070;50.794;7.054;2022-08-19T11:43:06;100772.91;;;27.74;42.74
72925;BME280;61070;50.794;7.054;2022-08-19T11:45:32;100773.69;;;27.31;43.80
72925;BME280;61070;50.794;7.054;2022-08-19T11:47:57;100767.41;;;26.95;44.77
72925;BME280;61070;50.794;7.054;2022-08-19T11:50:23;100771.44;;;27.36;44.00
72925;BME280;61070;50.794;7.054;2022-08-19T11:52:48;100770.09;;;27.19;43.54
72925;BME280;61070;50.794;7.054;2022-08-19T11:55:14;100782.00;;;26.94;43.64
72925;BME280;61070;50.794;7.054;2022-08-19T11:57:40;100761.06;;;27.19;43.70
72925;BME280;61070;50.794;7.054;2022-08-19T12:00:09;100766.72;;;27.05;43.82
72925;BME280;61070;50.794;7.054;2022-08-19T12:02:36;100766.72;;;26.58;44.55
72925;BME280;61070;50.794;7.054;2022-08-19T12:05:01;100760.50;;;26.91;43.98
72925;BME280;61070;50.794;7.054;2022-08-19T12:07:28;100767.31;;;26.97;43.69
72925;BME280;61070;50.794;7.054;2022-08-19T12:09:55;100769.25;;;26.37;44.78
72925;BME280;61070;50.794;7.054;2022-08-19T12:12:21;100767.06;;;26.43;44.56
72925;BME280;61070;50.794;7.054;2022-08-19T12:14:46;100765.44;;;26.86;44.31
72925;BME280;61070;50.794;7.054;2022-08-19T12:17:12;100755.09;;;27.36;43.05
72925;BME280;61070;50.794;7.054;2022-08-19T12:19:38;100769.22;;;27.41;43.01
72925;BME280;61070;50.794;7.054;2022-08-19T12:22:04;100753.84;;;27.74;41.60
72925;BME280;61070;50.794;7.054;2022-08-19T12:24:31;100757.41;;;27.63;41.47
72925;BME280;61070;50.794;7.054;2022-08-19T12:26:57;100764.69;;;27.85;41.24
72925;BME280;61070;50.794;7.054;2022-08-19T12:29:24;100752.47;;;28.23;40.38
72925;BME280;61070;50.794;7.054;2022-08-19T12:31:55;100754.22;;;27.58;40.95
72925;BME280;61070;50.794;7.054;2022-08-19T12:34:27;100752.72;;;27.88;40.79
72925;BME280;61070;50.794;7.054;2022-08-19T12:36:57;100762.78;;;27.42;41.58
72925;BME280;61070;50.794;7.054;2022-08-19T12:39:22;100757.69;;;27.60;41.76
72925;BME280;61070;50.794;7.054;2022-08-19T12:41:48;100746.13;;;27.90;41.12
72925;BME280;61070;50.794;7.054;2022-08-19T12:44:14;100743.16;;;27.93;39.77
72925;BME280;61070;50.794;7.054;2022-08-19T12:46:39;100743.00;;;27.95;40.11
72925;BME280;61070;50.794;7.054;2022-08-19T12:49:05;100743.84;;;28.06;39.80
72925;BME280;61070;50.794;7.054;2022-08-19T12:51:30;100743.34;;;28.45;39.33
72925;BME280;61070;50.794;7.054;2022-08-19T12:53:56;100738.41;;;28.38;39.26
72925;BME280;61070;50.794;7.054;2022-08-19T12:56:21;100740.63;;;28.65;38.75
72925;BME280;61070;50.794;7.054;2022-08-19T12:58:47;100734.09;;;28.78;37.86
72925;BME280;61070;50.794;7.054;2022-08-19T13:01:14;100733.81;;;28.81;37.62
72925;BME280;61070;50.794;7.054;2022-08-19T13:03:40;122540.09;;;28.53;37.86